Time;durP1;ratioP1;P1;durP2;ratioP2;P2;SDS_P1;SDS_P2;PMS_P1;PMS_P2;Temp;Humidity;BMP_temperature;BMP_pressure;BME280_temperature;BME280_humidity;BME280_pressure;Samples;Min_cycle;Max_cycle;Signal;HPM_P1;HPM_P2
2023/05/11 00:00:41;;;;;;;4.40;4.00;;;11.10;99.90;;;;;;5075349;28;20200;-75
2023/05/11 00:03:07;;;;;;;4.13;3.70;;;11.10;99.90;;;;;;5075015;28;20199;-75
2023/05/11 00:05:34;;;;;;;6.45;3.70;;;11.10;99.90;;;;;;5075108;28;20201;-75
2023/05/11 00:08:01;;;;;;;4.60;4.03;;;11.10;99.90;;;;;;5075207;28;20197;-75
2023/05/11 00:10:28;;;;;;;5.03;3.70;;;11.10;99.90;;;;;;5075176;28;20551;-75
2023/05/11 00:12:55;;;;;;;5.00;3.53;;;11.10;99.90;;;;;;5075076;28;20326;-74
2023/05/11 00:15:22;;;;;;;5.13;4.00;;;11.10;99.90;;;;;;5074972;28;20222;-75
2023/05/11 00:17:50;;;;;;;5.30;3.87;;;11.10;99.90;;;;;;5074794;28;20263;-75
2023/05/11 00:20:16;;;;;;;5.57;3.70;;;11.10;99.90;;;;;;5074695;28;20193;-75
2023/05/11 00:22:43;;;;;;;4.60;3.50;;;11.10;99.90;;;;;;5074866;28;20223;-75
2023/05/11 00:25:10;;;;;;;3.63;3.20;;;11.10;99.90;;;;;;5074648;28;20243;-75
2023/05/11 00:27:36;;;;;;;3.53;3.23;;;11.10;99.90;;;;;;5074671;28;20633;-75
2023/05/11 00:30:03;;;;;;;4.03;3.07;;;11.10;99.90;;;;;;5074643;28;20208;-75
2023/05/11 00:32:30;;;;;;;7.17;3.40;;;11.10;99.90;;;;;;5074409;28;20258;-75
2023/05/11 00:34:58;;;;;;;3.83;3.50;;;11.10;99.90;;;;;;5074813;28;20255;-75
2023/05/11 00:37:24;;;;;;;6.97;3.40;;;11.20;99.90;;;;;;5074692;28;20200;-75
2023/05/11 00:39:51;;;;;;;4.47;3.30;;;11.20;99.90;;;;;;5074545;28;20254;-75
2023/05/11 00:42:17;;;;;;;3.97;3.10;;;11.20;99.90;;;;;;5074465;28;20197;-75
2023/05/11 00:44:44;;;;;;;3.20;2.90;;;11.20;99.90;;;;;;5074522;28;20603;-75
2023/05/11 00:47:11;;;;;;;3.10;2.77;;;11.20;99.90;;;;;;5074278;28;20260;-75
2023/05/11 00:49:38;;;;;;;3.47;2.93;;;11.20;99.90;;;;;;5074557;28;20205;-76
2023/05/11 00:52:06;;;;;;;4.33;3.40;;;11.20;99.90;;;;;;5074145;28;20233;-75
2023/05/11 00:54:33;;;;;;;4.47;3.30;;;11.10;99.90;;;;;;5074309;28;20197;-75
2023/05/11 00:57:00;;;;;;;4.70;3.70;;;11.10;99.90;;;;;;5074122;28;20208;-75
2023/05/11 00:59:27;;;;;;;6.63;3.70;;;11.10;99.90;;;;;;5074030;28;20205;-75
2023/05/11 01:01:54;;;;;;;3.53;3.23;;;11.10;99.90;;;;;;5074280;28;20227;-75
2023/05/11 01:04:20;;;;;;;3.63;3.33;;;11.10;99.90;;;;;;5074186;28;20196;-75
2023/05/11 01:06:53;;;;;;;4.97;3.47;;;11.10;99.90;;;;;;5073832;28;20738;-75
2023/05/11 01:09:39;;;;;;;5.00;3.20;;;11.00;99.90;;;;;;5074035;28;20197;-75
2023/05/11 01:12:13;;;;;;;5.40;3.10;;;11.00;99.90;;;;;;5073842;28;20201;-75
2023/05/11 01:14:44;;;;;;;3.93;3.20;;;11.00;99.90;;;;;;5073352;28;20196;-75
2023/05/11 01:17:20;;;;;;;6.30;3.33;;;11.00;99.90;;;;;;5073910;28;20197;-76
2023/05/11 01:19:52;;;;;;;3.13;2.83;;;11.00;99.90;;;;;;5073776;28;20200;-75
2023/05/11 01:22:34;;;;;;;3.10;2.80;;;10.90;99.90;;;;;;5073598;28;20577;-73
2023/05/11 01:25:12;;;;;;;4.00;3.17;;;10.90;99.90;;;;;;5073825;28;20197;-73
2023/05/11 01:28:03;;;;;;;4.70;3.13;;;10.90;99.90;;;;;;5073615;28;20233;-73
2023/05/11 01:30:35;;;;;;;5.03;3.13;;;10.90;99.90;;;;;;5073602;28;20250;-74
2023/05/11 01:33:07;;;;;;;3.63;3.03;;;10.80;99.90;;;;;;5073422;28;20201;-74
2023/05/11 01:35:37;;;;;;;5.03;3.47;;;10.80;99.90;;;;;;5073476;28;20715;-74
2023/05/11 01:38:09;;;;;;;11.07;3.27;;;10.80;99.90;;;;;;5073332;28;20254;-74
2023/05/11 01:40:38;;;;;;;4.97;3.37;;;10.80;99.90;;;;;;5073531;28;20209;-74
2023/05/11 01:43:07;;;;;;;6.20;3.60;;;10.80;99.90;;;;;;5073291;28;20204;-74
2023/05/11 01:45:39;;;;;;;4.03;3.10;;;10.70;99.90;;;;;;5073231;28;20197;-74
2023/05/11 01:48:11;;;;;;;3.77;3.47;;;10.70;99.90;;;;;;5073280;28;20229;-74
2023/05/11 01:50:39;;;;;;;3.40;3.10;;;10.70;99.90;;;;;;5073359;28;20193;-74
2023/05/11 01:53:06;;;;;;;4.50;3.13;;;10.70;99.90;;;;;;5072992;28;20274;-74
2023/05/11 01:55:35;;;;;;;4.03;2.90;;;10.60;99.90;;;;;;5073103;28;20656;-74
2023/05/11 01:58:04;;;;;;;3.10;2.83;;;10.60;99.90;;;;;;5072940;28;20292;-74
2023/05/11 02:00:31;;;;;;;3.50;2.60;;;10.60;99.90;;;;;;5073177;28;20197;-74
2023/05/11 02:03:01;;;;;;;5.87;2.80;;;10.60;99.90;;;;;;5073060;28;20197;-74
2023/05/11 02:05:29;;;;;;;3.23;2.93;;;10.60;99.90;;;;;;5073353;28;20189;-74
2023/05/11 02:07:57;;;;;;;6.60;2.77;;;10.60;99.90;;;;;;5072896;28;20220;-74
2023/05/11 02:10:26;;;;;;;4.50;2.80;;;10.50;99.90;;;;;;5072732;28;20258;-74
2023/05/11 02:12:53;;;;;;;3.57;2.97;;;10.50;99.90;;;;;;5073023;28;20258;-74
2023/05/11 02:15:22;;;;;;;4.70;3.10;;;10.50;99.90;;;;;;5073006;28;20192;-74
2023/05/11 02:17:50;;;;;;;4.00;2.90;;;10.50;99.90;;;;;;5072790;28;20200;-74
2023/05/11 02:20:19;;;;;;;3.70;3.20;;;10.40;99.90;;;;;;5072710;28;20553;-74
2023/05/11 02:22:46;;;;;;;4.03;3.13;;;10.40;99.90;;;;;;5072662;28;20254;-75
2023/05/11 02:25:13;;;;;;;6.57;2.93;;;10.40;99.90;;;;;;5072693;28;20231;-74
2023/05/11 02:27:40;;;;;;;3.47;3.17;;;10.40;99.90;;;;;;5071531;28;20712;-75
2023/05/11 02:30:08;;;;;;;3.40;3.10;;;10.50;99.90;;;;;;5072771;28;20227;-75
2023/05/11 02:32:38;;;;;;;3.87;3.47;;;10.50;99.90;;;;;;5072705;28;20193;-74
2023/05/11 02:35:09;;;;;;;4.73;3.30;;;10.50;99.90;;;;;;5072710;28;20196;-74
2023/05/11 02:37:41;;;;;;;3.70;3.13;;;10.40;99.90;;;;;;5072411;28;20197;-74
2023/05/11 02:40:15;;;;;;;3.50;3.20;;;10.40;99.90;;;;;;5072824;28;20201;-75
2023/05/11 02:42:43;;;;;;;5.13;3.50;;;10.40;99.90;;;;;;5072608;28;20239;-74
2023/05/11 02:45:11;;;;;;;4.53;3.53;;;10.40;99.90;;;;;;5072554;28;20207;-74
2023/05/11 02:47:43;;;;;;;4.67;3.70;;;10.40;99.90;;;;;;5072407;28;20636;-75
2023/05/11 02:50:10;;;;;;;4.77;3.77;;;10.30;99.90;;;;;;5072646;28;20302;-75
2023/05/11 02:52:44;;;;;;;5.87;3.90;;;10.30;99.90;;;;;;5072372;28;20644;-75
2023/05/11 02:55:13;;;;;;;4.20;3.77;;;10.30;99.90;;;;;;5072533;28;20201;-75
2023/05/11 02:57:40;;;;;;;4.10;3.70;;;10.20;99.90;;;;;;5072434;28;20338;-74
2023/05/11 03:00:08;;;;;;;4.27;3.87;;;10.20;99.90;;;;;;5072423;28;20201;-74
2023/05/11 03:02:35;;;;;;;4.03;3.73;;;10.20;99.90;;;;;;5072246;28;20208;-74
2023/05/11 03:05:02;;;;;;;4.03;3.63;;;10.20;99.90;;;;;;5072498;28;20197;-74
2023/05/11 03:07:29;;;;;;;3.63;3.33;;;10.10;99.90;;;;;;5072150;28;20693;-73
2023/05/11 03:09:57;;;;;;;3.87;3.13;;;10.10;99.90;;;;;;5072178;28;20201;-74
2023/05/11 03:12:23;;;;;;;3.63;3.30;;;10.10;99.90;;;;;;5072286;28;20202;-75
2023/05/11 03:14:52;;;;;;;5.47;3.57;;;10.10;99.90;;;;;;5072194;28;20204;-74
2023/05/11 03:17:20;;;;;;;4.30;3.87;;;10.00;99.90;;;;;;5071990;28;20208;-74
2023/05/11 03:19:47;;;;;;;5.17;4.30;;;10.00;99.90;;;;;;5072121;28;20223;-74
2023/05/11 03:22:15;;;;;;;6.90;3.80;;;10.00;99.90;;;;;;5072217;28;20200;-74
2023/05/11 03:24:42;;;;;;;4.20;3.80;;;10.00;99.90;;;;;;5072123;28;20258;-74
2023/05/11 03:27:12;;;;;;;6.53;4.10;;;9.90;99.90;;;;;;5071913;28;20275;-73
2023/05/11 03:29:41;;;;;;;7.40;4.10;;;10.00;99.90;;;;;;5071892;28;20250;-74
2023/05/11 03:32:08;;;;;;;5.20;4.50;;;10.00;99.90;;;;;;5072113;28;20276;-74
2023/05/11 03:34:35;;;;;;;5.93;4.50;;;9.90;99.90;;;;;;5072072;28;20201;-74
2023/05/11 03:37:03;;;;;;;5.50;4.90;;;9.90;99.90;;;;;;5071889;28;20201;-74
2023/05/11 03:39:32;;;;;;;7.10;5.50;;;9.90;99.90;;;;;;5075084;28;20564;-74
2023/05/11 03:42:00;;;;;;;6.13;5.23;;;9.90;99.90;;;;;;5075528;28;20192;-75
2023/05/11 03:44:30;;;;;;;7.83;5.60;;;9.80;99.90;;;;;;5075744;28;20532;-75
2023/05/11 03:46:57;;;;;;;6.00;5.40;;;9.80;99.90;;;;;;5075438;28;20200;-74
2023/05/11 03:49:25;;;;;;;6.30;5.67;;;9.90;99.90;;;;;;5075323;28;20238;-74
2023/05/11 03:51:52;;;;;;;6.47;5.57;;;9.90;99.90;;;;;;5075317;28;20205;-74
2023/05/11 03:54:19;;;;;;;8.57;5.97;;;9.90;99.90;;;;;;5075309;28;20197;-74
2023/05/11 03:56:45;;;;;;;6.47;5.87;;;9.80;99.90;;;;;;5075025;28;20796;-74
2023/05/11 03:59:15;;;;;;;6.30;5.63;;;9.90;99.90;;;;;;5075380;28;20266;-75
2023/05/11 04:01:44;;;;;;;6.80;5.90;;;9.90;99.90;;;;;;5075056;28;20679;-75
2023/05/11 04:04:10;;;;;;;8.90;5.93;;;9.90;99.90;;;;;;5075146;28;20197;-75
2023/05/11 04:06:37;;;;;;;6.63;5.93;;;9.90;99.90;;;;;;5074945;28;20236;-75
2023/05/11 04:09:05;;;;;;;9.17;6.00;;;9.80;99.90;;;;;;5074802;28;20614;-75
2023/05/11 04:11:35;;;;;;;6.50;5.87;;;9.80;99.90;;;;;;5075121;28;20288;-76
2023/05/11 04:14:01;;;;;;;7.13;6.13;;;9.80;99.90;;;;;;5075094;28;20197;-75
2023/05/11 04:16:28;;;;;;;6.57;5.87;;;9.80;99.90;;;;;;5074953;28;20219;-75
2023/05/11 04:18:56;;;;;;;7.13;5.40;;;9.80;99.90;;;;;;5074846;28;20204;-76
2023/05/11 04:21:23;;;;;;;6.63;5.93;;;9.80;99.90;;;;;;5074801;28;20560;-76
2023/05/11 04:23:49;;;;;;;7.23;5.80;;;9.80;99.90;;;;;;5074644;28;20247;-76
2023/05/11 04:26:16;;;;;;;7.80;5.80;;;9.90;99.90;;;;;;5074646;28;20731;-76
2023/05/11 04:28:42;;;;;;;6.83;6.10;;;9.90;99.90;;;;;;5074674;28;20229;-76
2023/05/11 04:31:09;;;;;;;5.90;5.37;;;9.90;99.90;;;;;;5074528;28;20664;-77
2023/05/11 04:33:36;;;;;;;13.13;6.13;;;9.90;99.90;;;;;;5074288;28;20203;-77
2023/05/11 04:36:05;;;;;;;6.73;5.77;;;9.90;99.90;;;;;;5074335;28;20603;-77
2023/05/11 04:38:31;;;;;;;6.53;5.83;;;9.90;99.90;;;;;;5074481;28;20262;-76
2023/05/11 04:41:02;;;;;;;6.67;5.90;;;9.90;99.90;;;;;;5074489;28;20201;-77
2023/05/11 04:43:28;;;;;;;7.73;6.93;;;9.90;99.90;;;;;;5074555;28;20193;-76
2023/05/11 04:45:55;;;;;;;6.57;5.97;;;9.90;99.90;;;;;;5074442;28;20645;-76
2023/05/11 04:48:22;;;;;;;7.07;6.37;;;9.90;99.90;;;;;;5074244;28;20255;-77
2023/05/11 04:50:48;;;;;;;7.57;6.77;;;9.80;99.90;;;;;;5073283;28;20251;-79
2023/05/11 04:53:16;;;;;;;8.00;6.70;;;9.80;99.90;;;;;;5073932;28;20704;-76
2023/05/11 04:55:43;;;;;;;8.97;6.80;;;9.90;99.90;;;;;;5074319;28;20196;-77
2023/05/11 04:58:10;;;;;;;7.73;6.93;;;9.80;99.90;;;;;;5074054;28;20714;-79
2023/05/11 05:00:37;;;;;;;8.10;7.23;;;9.80;99.90;;;;;;5073687;28;20561;-79
2023/05/11 05:03:04;;;;;;;9.73;7.27;;;9.80;99.90;;;;;;5073949;28;20219;-78
2023/05/11 05:05:30;;;;;;;9.67;7.63;;;9.80;99.90;;;;;;5073725;28;20611;-78
2023/05/11 05:07:57;;;;;;;8.97;7.60;;;9.80;99.90;;;;;;5073980;28;20229;-77
2023/05/11 05:10:25;;;;;;;11.37;7.63;;;9.80;99.90;;;;;;5073826;28;20204;-76
2023/05/11 05:12:52;;;;;;;9.60;8.60;;;9.80;99.90;;;;;;5073769;28;20242;-75
2023/05/11 05:15:18;;;;;;;10.63;8.60;;;9.80;99.90;;;;;;5073568;28;20648;-75
2023/05/11 05:17:45;;;;;;;9.77;8.60;;;9.80;99.90;;;;;;5073468;28;20260;-73
2023/05/11 05:20:12;;;;;;;10.07;8.63;;;9.70;99.90;;;;;;5073775;28;20261;-74
2023/05/11 05:22:38;;;;;;;11.33;9.40;;;9.70;99.90;;;;;;5073579;28;20201;-74
2023/05/11 05:25:06;;;;;;;12.83;8.97;;;9.80;99.90;;;;;;5073600;28;20259;-76
2023/05/11 05:27:34;;;;;;;9.43;8.50;;;9.80;99.90;;;;;;5073343;28;20197;-74
2023/05/11 05:30:00;;;;;;;15.00;8.97;;;9.80;99.90;;;;;;5073295;28;20242;-74
2023/05/11 05:32:27;;;;;;;13.13;8.87;;;9.80;99.90;;;;;;5073154;28;20209;-74
2023/05/11 05:34:54;;;;;;;12.20;9.07;;;9.80;99.90;;;;;;5073168;28;20533;-74
2023/05/11 05:37:20;;;;;;;9.87;8.40;;;9.80;99.90;;;;;;5073299;28;20648;-77
2023/05/11 05:39:47;;;;;;;10.80;9.13;;;9.80;99.90;;;;;;5073423;28;20322;-74
2023/05/11 05:42:14;;;;;;;9.70;8.70;;;9.80;99.90;;;;;;5073107;28;20201;-74
2023/05/11 05:44:41;;;;;;;11.40;8.90;;;9.80;99.90;;;;;;5072246;28;20522;-74
2023/05/11 05:47:08;;;;;;;11.37;9.70;;;9.80;99.90;;;;;;5072703;28;20227;-73
2023/05/11 05:49:35;;;;;;;11.17;8.90;;;9.90;99.90;;;;;;5072463;28;20229;-73
2023/05/11 05:52:01;;;;;;;11.30;9.20;;;9.90;99.90;;;;;;5072685;28;20689;-73
2023/05/11 05:54:28;;;;;;;10.73;9.67;;;9.90;99.90;;;;;;5073248;28;20196;-74
2023/05/11 05:56:55;;;;;;;10.43;9.33;;;9.90;99.90;;;;;;5072833;28;20730;-74
2023/05/11 05:59:23;;;;;;;11.37;10.07;;;10.00;99.90;;;;;;5073150;28;20205;-74
2023/05/11 06:01:51;;;;;;;12.63;10.30;;;10.10;99.90;;;;;;5072733;28;20674;-74
2023/05/11 06:04:18;;;;;;;11.33;10.00;;;10.20;99.90;;;;;;5073219;28;20197;-74
2023/05/11 06:06:45;;;;;;;12.37;11.07;;;10.20;99.90;;;;;;5073218;28;20197;-76
2023/05/11 06:09:11;;;;;;;12.00;10.00;;;10.30;99.90;;;;;;5072500;28;20565;-75
2023/05/11 06:11:38;;;;;;;11.73;10.53;;;10.30;99.90;;;;;;5072749;28;20201;-75
2023/05/11 06:14:05;;;;;;;10.97;9.53;;;10.40;99.90;;;;;;5072887;28;20246;-74
2023/05/11 06:16:31;;;;;;;9.97;8.80;;;10.30;99.90;;;;;;5073122;28;20201;-74
2023/05/11 06:18:59;;;;;;;10.77;8.67;;;10.30;99.90;;;;;;5073069;28;20219;-75
2023/05/11 06:21:26;;;;;;;9.23;8.33;;;10.30;99.90;;;;;;5072859;28;20197;-75
2023/05/11 06:23:52;;;;;;;10.17;8.33;;;10.30;99.90;;;;;;5072792;28;20391;-75
2023/05/11 06:26:20;;;;;;;9.17;8.27;;;10.20;99.90;;;;;;5072736;28;20227;-74
2023/05/11 06:28:46;;;;;;;11.97;8.60;;;10.20;99.90;;;;;;5072487;28;20224;-74
2023/05/11 06:31:14;;;;;;;11.23;8.97;;;10.20;99.90;;;;;;5072934;28;20201;-75
2023/05/11 06:33:40;;;;;;;9.40;8.43;;;10.20;99.90;;;;;;5072587;28;20656;-74
2023/05/11 06:36:09;;;;;;;9.13;8.13;;;10.20;99.90;;;;;;5072771;28;20319;-75
2023/05/11 06:38:35;;;;;;;9.37;8.40;;;10.20;99.90;;;;;;5072663;28;20610;-74
2023/05/11 06:41:02;;;;;;;9.83;8.83;;;10.20;99.90;;;;;;5072624;28;20197;-75
2023/05/11 06:43:29;;;;;;;10.03;8.70;;;10.30;99.90;;;;;;5072368;28;20254;-76
2023/05/11 06:45:55;;;;;;;8.67;7.73;;;10.40;99.90;;;;;;5072673;28;20193;-74
2023/05/11 06:48:24;;;;;;;11.00;8.50;;;10.40;99.90;;;;;;5072582;28;20554;-74
2023/05/11 06:50:51;;;;;;;9.87;7.77;;;10.30;99.90;;;;;;5072486;28;20193;-75
2023/05/11 06:53:19;;;;;;;10.03;8.40;;;10.30;99.90;;;;;;5072353;28;20237;-74
2023/05/11 06:55:46;;;;;;;12.53;8.67;;;10.30;99.90;;;;;;5072371;28;20200;-74
2023/05/11 06:58:13;;;;;;;8.80;7.90;;;10.40;99.90;;;;;;5072652;28;20201;-74
2023/05/11 07:00:39;;;;;;;8.40;7.50;;;10.40;99.90;;;;;;5072590;28;20284;-76
2023/05/11 07:03:06;;;;;;;11.57;8.43;;;10.40;99.90;;;;;;5072464;28;20192;-75
2023/05/11 07:05:33;;;;;;;11.63;8.20;;;10.50;99.90;;;;;;5072290;28;20200;-75
2023/05/11 07:08:00;;;;;;;9.50;8.20;;;10.60;99.90;;;;;;5072204;28;20534;-74
2023/05/11 07:10:27;;;;;;;8.60;7.70;;;10.70;99.90;;;;;;5072348;28;20197;-75
2023/05/11 07:12:54;;;;;;;7.80;7.07;;;10.60;99.90;;;;;;5074121;28;20327;-75
2023/05/11 07:15:21;;;;;;;8.00;6.90;;;10.60;99.90;;;;;;5076352;28;20193;-78
2023/05/11 07:17:48;;;;;;;11.03;7.20;;;10.60;99.90;;;;;;5076056;28;20296;-78
2023/05/11 07:20:15;;;;;;;10.33;6.73;;;10.50;99.90;;;;;;5076029;28;20224;-78
2023/05/11 07:22:41;;;;;;;8.63;6.63;;;10.50;99.90;;;;;;5076081;28;20197;-78
2023/05/11 07:25:09;;;;;;;7.33;6.63;;;10.50;99.90;;;;;;5076241;28;20594;-77
2023/05/11 07:27:37;;;;;;;9.67;6.67;;;10.70;99.90;;;;;;5075871;28;20656;-78
2023/05/11 07:30:04;;;;;;;7.83;6.37;;;10.70;99.90;;;;;;5075949;28;20232;-78
2023/05/11 07:32:32;;;;;;;7.20;6.50;;;10.80;99.90;;;;;;5075940;28;20201;-78
2023/05/11 07:34:58;;;;;;;7.20;6.43;;;10.80;99.90;;;;;;5076133;28;20250;-78
2023/05/11 07:37:25;;;;;;;7.60;6.83;;;10.90;99.90;;;;;;5075841;28;20197;-77
2023/05/11 07:39:53;;;;;;;8.20;6.67;;;11.00;99.90;;;;;;5075911;28;20250;-77
2023/05/11 07:42:19;;;;;;;7.37;6.50;;;11.00;99.90;;;;;;5075772;28;20197;-77
2023/05/11 07:44:47;;;;;;;6.83;6.13;;;11.20;99.90;;;;;;5075678;28;20200;-77
2023/05/11 07:47:14;;;;;;;7.13;6.43;;;11.30;99.90;;;;;;5075686;28;20197;-77
2023/05/11 07:49:41;;;;;;;6.93;5.93;;;11.30;99.90;;;;;;5075556;28;20224;-76
2023/05/11 07:52:07;;;;;;;6.60;6.00;;;11.40;99.90;;;;;;5075377;28;20700;-77
2023/05/11 07:54:34;;;;;;;6.73;5.60;;;11.60;99.90;;;;;;5075880;28;20250;-76
2023/05/11 07:57:02;;;;;;;8.20;6.13;;;11.30;99.90;;;;;;5075732;28;20201;-77
2023/05/11 07:59:29;;;;;;;6.60;6.07;;;11.50;99.90;;;;;;5075724;28;20193;-77
2023/05/11 08:01:58;;;;;;;6.57;6.00;;;11.50;99.90;;;;;;5075565;28;20593;-77
2023/05/11 08:04:26;;;;;;;6.43;5.83;;;11.60;99.90;;;;;;5075376;28;20233;-76
2023/05/11 08:06:53;;;;;;;9.30;6.93;;;11.80;99.90;;;;;;5075561;28;20209;-76
2023/05/11 08:09:20;;;;;;;7.57;6.83;;;11.60;99.90;;;;;;5075283;28;20270;-78
2023/05/11 08:11:46;;;;;;;6.90;6.30;;;11.40;99.90;;;;;;5075136;28;20201;-77
2023/05/11 08:14:13;;;;;;;7.10;6.50;;;11.20;99.90;;;;;;5075293;28;20207;-78
2023/05/11 08:16:40;;;;;;;8.87;8.00;;;11.30;99.90;;;;;;5075161;28;20201;-76
2023/05/11 08:19:07;;;;;;;8.27;7.40;;;11.70;99.90;;;;;;5075054;28;20223;-77
2023/05/11 08:21:34;;;;;;;8.90;7.37;;;11.70;99.90;;;;;;5075073;28;20197;-76
2023/05/11 08:24:01;;;;;;;9.33;7.73;;;11.80;99.90;;;;;;5074969;28;20197;-75
2023/05/11 08:26:28;;;;;;;8.20;7.23;;;11.90;99.90;;;;;;5074883;28;20703;-76
2023/05/11 08:28:54;;;;;;;9.53;8.57;;;12.10;99.90;;;;;;5074909;28;20220;-75
2023/05/11 08:31:21;;;;;;;11.83;7.73;;;12.20;99.90;;;;;;5074907;28;20317;-76
2023/05/11 08:33:48;;;;;;;8.17;7.33;;;12.10;99.90;;;;;;5074728;28;20197;-75
2023/05/11 08:36:16;;;;;;;9.53;7.70;;;11.90;99.90;;;;;;5074912;28;20258;-75
2023/05/11 08:38:43;;;;;;;7.87;7.07;;;11.90;99.90;;;;;;5074540;28;20205;-75
2023/05/11 08:41:11;;;;;;;6.30;5.80;;;12.00;99.90;;;;;;5074558;28;20716;-75
2023/05/11 08:43:40;;;;;;;6.57;6.07;;;11.90;99.90;;;;;;5074579;28;20706;-75
2023/05/11 08:46:08;;;;;;;6.83;6.23;;;11.90;99.90;;;;;;5074460;28;20205;-75
2023/05/11 08:48:35;;;;;;;10.20;7.33;;;12.00;99.90;;;;;;5074409;28;20522;-75
2023/05/11 08:51:03;;;;;;;8.17;6.93;;;12.10;99.90;;;;;;5074488;28;20196;-75
2023/05/11 08:53:31;;;;;;;7.10;6.50;;;12.10;99.90;;;;;;5074547;28;20251;-76
2023/05/11 08:55:59;;;;;;;7.30;6.70;;;12.10;99.90;;;;;;5074244;28;20724;-75
2023/05/11 08:58:27;;;;;;;7.43;6.63;;;12.10;99.90;;;;;;5074415;28;20601;-75
2023/05/11 09:00:54;;;;;;;8.23;7.40;;;12.10;99.90;;;;;;5074335;28;20642;-75
2023/05/11 09:03:22;;;;;;;8.50;6.27;;;12.00;99.90;;;;;;5074496;28;20197;-75
2023/05/11 09:05:49;;;;;;;12.40;11.10;;;12.00;99.90;;;;;;5074469;28;20205;-75
2023/05/11 09:08:18;;;;;;;8.30;7.57;;;12.10;99.90;;;;;;5074237;28;20197;-75
2023/05/11 09:10:48;;;;;;;6.70;6.10;;;12.30;99.90;;;;;;5073952;28;20229;-76
2023/05/11 09:13:15;;;;;;;6.93;6.43;;;12.30;99.90;;;;;;5073974;28;20201;-75
2023/05/11 09:15:42;;;;;;;13.43;11.70;;;12.20;99.90;;;;;;5074144;28;20235;-76
2023/05/11 09:18:09;;;;;;;8.53;7.73;;;12.20;99.90;;;;;;5073950;28;20200;-78
2023/05/11 09:20:35;;;;;;;8.00;7.30;;;12.20;99.90;;;;;;5073873;28;20217;-79
2023/05/11 09:23:02;;;;;;;8.67;6.70;;;12.10;99.90;;;;;;5073895;28;20193;-78
2023/05/11 09:25:33;;;;;;;6.33;5.20;;;12.00;99.90;;;;;;5074015;28;20239;-78
2023/05/11 09:28:02;;;;;;;6.63;6.13;;;11.90;99.90;;;;;;5075060;28;20197;-78
2023/05/11 09:30:29;;;;;;;6.23;5.73;;;12.00;99.90;;;;;;5073905;28;20704;-77
2023/05/11 09:32:57;;;;;;;5.57;5.07;;;11.90;99.90;;;;;;5073949;28;20266;-77
2023/05/11 09:35:25;;;;;;;5.27;4.87;;;11.70;99.90;;;;;;5073688;28;20224;-76
2023/05/11 09:38:04;;;;;;;6.17;5.57;;;11.70;99.90;;;;;;5073688;28;20197;-76
2023/05/11 09:40:31;;;;;;;6.30;5.70;;;11.70;99.90;;;;;;5078636;28;20199;-75
2023/05/11 09:42:59;;;;;;;6.90;6.20;;;11.70;99.90;;;;;;5077797;28;20196;-75
2023/05/11 09:45:36;;;;;;;7.00;6.40;;;11.60;99.90;;;;;;5073545;28;20197;-75
2023/05/11 09:48:03;;;;;;;7.60;6.80;;;11.60;99.90;;;;;;5073534;28;20203;-76
2023/05/11 09:50:33;;;;;;;7.57;6.93;;;11.60;99.90;;;;;;5073249;28;20225;-75
2023/05/11 09:52:59;;;;;;;7.77;7.03;;;11.70;99.90;;;;;;5073195;28;20245;-75
2023/05/11 09:55:26;;;;;;;7.70;6.97;;;11.80;99.90;;;;;;5073476;28;20197;-74
2023/05/11 09:57:54;;;;;;;7.73;7.13;;;11.80;99.90;;;;;;5073293;28;20204;-75
2023/05/11 10:00:21;;;;;;;9.93;7.67;;;11.80;99.90;;;;;;5073168;28;20209;-75
2023/05/11 10:03:00;;;;;;;7.83;7.03;;;12.00;99.90;;;;;;5073121;28;20259;-75
2023/05/11 10:05:26;;;;;;;7.63;6.87;;;12.10;99.90;;;;;;5073127;28;20287;-75
2023/05/11 10:07:57;;;;;;;7.97;6.80;;;12.00;99.90;;;;;;5073134;28;20274;-76
2023/05/11 10:10:26;;;;;;;7.20;6.60;;;12.00;99.90;;;;;;5073062;28;20239;-75
2023/05/11 10:12:54;;;;;;;7.97;7.27;;;11.80;99.90;;;;;;5073018;28;20228;-75
2023/05/11 10:15:24;;;;;;;8.43;7.73;;;11.90;99.90;;;;;;5072831;28;20709;-73
2023/05/11 10:17:53;;;;;;;8.60;7.70;;;11.90;99.90;;;;;;5072796;28;20276;-71
2023/05/11 10:20:20;;;;;;;11.33;10.07;;;11.90;99.90;;;;;;5072996;28;20197;-74
2023/05/11 10:22:47;;;;;;;8.90;8.07;;;11.80;99.90;;;;;;5072754;28;20200;-73
2023/05/11 10:25:15;;;;;;;7.87;7.07;;;11.70;99.90;;;;;;5072793;28;20197;-72
2023/05/11 10:27:42;;;;;;;7.00;6.30;;;11.60;99.90;;;;;;5072655;28;20201;-73
2023/05/11 10:30:11;;;;;;;7.50;6.60;;;11.60;99.90;;;;;;5072698;28;20217;-73
2023/05/11 10:32:37;;;;;;;7.40;6.70;;;11.60;99.90;;;;;;5072716;28;20196;-73
2023/05/11 10:35:07;;;;;;;10.27;7.40;;;11.70;99.90;;;;;;5073010;28;20208;-73
2023/05/11 10:37:33;;;;;;;7.00;6.40;;;12.00;99.90;;;;;;5073044;28;20719;-73
2023/05/11 10:40:00;;;;;;;7.90;7.10;;;11.90;99.90;;;;;;5073041;28;20714;-72
2023/05/11 10:42:50;;;;;;;6.67;6.10;;;11.80;99.90;;;;;;5072807;28;20201;-72
2023/05/11 10:45:22;;;;;;;7.67;7.00;;;11.70;99.90;;;;;;5072807;28;20204;-73
2023/05/11 10:48:23;;;;;;;7.13;6.53;;;11.70;99.90;;;;;;5073509;28;20236;-73
2023/05/11 10:51:22;;;;;;;7.00;6.40;;;11.80;99.90;;;;;;5076831;28;20224;-72
2023/05/11 10:54:13;;;;;;;7.50;6.87;;;11.80;99.90;;;;;;5076664;28;20228;-74
2023/05/11 10:57:21;;;;;;;8.03;7.33;;;11.70;99.90;;;;;;5076533;28;20228;-72
2023/05/11 11:00:09;;;;;;;8.43;7.73;;;11.80;99.90;;;;;;5076998;28;20200;-72
2023/05/11 11:02:37;;;;;;;6.90;5.70;;;11.80;99.90;;;;;;5076546;28;20208;-72
2023/05/11 11:05:08;;;;;;;7.33;4.83;;;11.80;99.90;;;;;;5076327;28;20192;-72
2023/05/11 11:07:58;;;;;;;5.50;5.10;;;11.60;99.90;;;;;;5076137;28;20629;-72
2023/05/11 11:10:32;;;;;;;5.33;4.70;;;11.80;99.90;;;;;;5076362;28;20294;-72
2023/05/11 11:13:04;;;;;;;6.20;5.60;;;11.90;99.90;;;;;;5076417;28;20273;-72
2023/05/11 11:16:03;;;;;;;5.93;5.10;;;12.10;99.90;;;;;;5076327;28;20656;-74
2023/05/11 11:18:32;;;;;;;5.53;5.03;;;12.10;99.90;;;;;;5076276;28;20777;-73
2023/05/11 11:20:59;;;;;;;6.13;5.63;;;12.00;99.90;;;;;;5076254;28;20204;-73
2023/05/11 11:23:45;;;;;;;6.30;5.80;;;11.80;99.90;;;;;;5076200;28;20199;-73
2023/05/11 11:26:14;;;;;;;6.47;5.87;;;12.00;99.90;;;;;;5076048;28;20276;-74
2023/05/11 11:29:10;;;;;;;7.67;6.87;;;12.10;99.90;;;;;;5075846;28;20563;-73
2023/05/11 11:31:37;;;;;;;5.80;5.30;;;12.40;99.90;;;;;;5076253;28;20197;-73
2023/05/11 11:34:33;;;;;;;6.93;6.27;;;12.10;99.90;;;;;;5075867;28;20648;-73
2023/05/11 11:37:03;;;;;;;6.40;5.80;;;11.90;99.90;;;;;;5075755;28;20262;-73
2023/05/11 11:39:48;;;;;;;6.10;5.57;;;11.80;99.90;;;;;;5076087;28;20254;-73
2023/05/11 11:42:16;;;;;;;5.37;4.93;;;11.60;99.90;;;;;;5075682;28;20200;-72
2023/05/11 11:44:44;;;;;;;5.80;5.23;;;11.70;99.90;;;;;;5075475;28;20224;-72
2023/05/11 11:47:11;;;;;;;6.43;5.93;;;11.60;99.90;;;;;;5075737;28;20197;-72
2023/05/11 11:49:38;;;;;;;6.33;5.80;;;11.60;99.90;;;;;;5075358;28;20221;-71
2023/05/11 11:52:06;;;;;;;5.67;5.10;;;11.50;99.90;;;;;;5075346;28;20761;-72
2023/05/11 11:54:41;;;;;;;4.80;4.33;;;11.60;99.90;;;;;;5075710;28;20239;-72
2023/05/11 11:57:42;;;;;;;8.90;4.23;;;11.50;99.90;;;;;;5075468;28;20196;-72
2023/05/11 12:00:11;;;;;;;4.63;4.23;;;11.50;99.90;;;;;;5075195;28;20240;-72
2023/05/11 12:02:40;;;;;;;5.00;4.50;;;11.50;99.90;;;;;;5075631;28;20237;-72
2023/05/11 12:05:12;;;;;;;5.80;5.17;;;11.50;99.90;;;;;;5075611;28;20710;-72
2023/05/11 12:07:42;;;;;;;4.83;4.43;;;11.60;99.90;;;;;;5075451;28;20208;-72
2023/05/11 12:10:13;;;;;;;6.60;5.53;;;11.60;99.90;;;;;;5075227;28;20223;-72
2023/05/11 12:12:39;;;;;;;7.20;5.17;;;11.60;99.90;;;;;;5075071;28;20193;-72
2023/05/11 12:15:08;;;;;;;6.63;6.03;;;11.60;99.90;;;;;;5075389;28;20561;-72
2023/05/11 12:17:38;;;;;;;7.00;5.60;;;11.50;99.90;;;;;;5075312;28;20228;-71
2023/05/11 12:20:13;;;;;;;6.37;5.77;;;11.50;99.90;;;;;;5075358;28;20204;-72
2023/05/11 12:22:40;;;;;;;5.73;5.13;;;11.50;99.90;;;;;;5074829;28;20250;-72
2023/05/11 12:25:10;;;;;;;6.27;5.77;;;11.60;99.90;;;;;;5074737;28;20228;-71
2023/05/11 12:27:47;;;;;;;4.87;4.47;;;11.60;99.90;;;;;;5074801;28;20611;-71
2023/05/11 12:30:20;;;;;;;4.50;4.10;;;11.50;99.90;;;;;;5074474;28;20217;-73
2023/05/11 12:32:46;;;;;;;5.93;3.83;;;11.30;99.90;;;;;;5074697;28;20283;-73
2023/05/11 12:35:15;;;;;;;3.90;3.60;;;11.30;99.90;;;;;;5074406;28;20201;-73
2023/05/11 12:37:42;;;;;;;4.73;4.20;;;11.30;99.90;;;;;;5073599;28;20205;-73
2023/05/11 12:40:11;;;;;;;4.93;4.47;;;11.30;99.90;;;;;;5074596;28;20679;-73
2023/05/11 12:42:48;;;;;;;5.40;4.50;;;11.50;99.90;;;;;;5074644;28;20201;-72
2023/05/11 12:45:14;;;;;;;5.73;3.90;;;11.70;99.90;;;;;;5074509;28;20288;-73
2023/05/11 12:47:41;;;;;;;8.53;3.40;;;11.80;99.90;;;;;;5074511;28;20273;-72
2023/05/11 12:50:09;;;;;;;3.20;2.90;;;11.80;99.90;;;;;;5074747;28;20820;-72
2023/05/11 12:52:36;;;;;;;3.20;2.90;;;11.60;99.90;;;;;;5074360;28;20229;-72
2023/05/11 12:55:03;;;;;;;3.20;2.90;;;11.50;99.90;;;;;;5074555;28;20262;-72
2023/05/11 12:57:32;;;;;;;4.97;3.20;;;11.40;99.90;;;;;;5074334;28;20201;-72